Time;durP1;ratioP1;P1;durP2;ratioP2;P2;SDS_P1;SDS_P2;PMS_P1;PMS_P2;Temp;Humidity;BMP_temperature;BMP_pressure;BME280_temperature;BME280_humidity;BME280_pressure;Samples;Min_cycle;Max_cycle;Signal;HPM_P1;HPM_P2
2021/12/13 00:00:43;;;;;;;22.17;9.53;;;8.90;99.90;;;;;;5047428;28;20203;-44
2021/12/13 00:03:16;;;;;;;22.37;9.83;;;9.00;99.90;;;;;;5058376;28;20281;-49
2021/12/13 00:05:47;;;;;;;21.83;10.27;;;8.90;99.90;;;;;;5052777;28;20200;-48
2021/12/13 00:08:19;;;;;;;19.97;10.37;;;9.00;99.90;;;;;;5057339;28;20887;-48
2021/12/13 00:10:49;;;;;;;22.90;9.87;;;9.00;99.90;;;;;;5058646;28;20215;-48
2021/12/13 00:13:21;;;;;;;22.80;10.00;;;9.00;99.90;;;;;;5071076;28;20212;-47
2021/12/13 00:15:53;;;;;;;21.17;10.50;;;9.00;99.90;;;;;;5065598;28;20893;-46
2021/12/13 00:18:27;;;;;;;22.37;9.50;;;9.00;99.90;;;;;;5056470;28;20204;-44
2021/12/13 00:21:04;;;;;;;26.80;10.23;;;9.00;99.90;;;;;;5035148;28;20212;-47
2021/12/13 00:23:34;;;;;;;23.70;9.70;;;9.00;99.90;;;;;;5071183;28;20826;-47
2021/12/13 00:26:04;;;;;;;21.77;10.17;;;9.00;99.90;;;;;;5071437;28;20280;-47
2021/12/13 00:28:34;;;;;;;24.00;10.13;;;9.10;99.90;;;;;;5052949;28;20211;-47
2021/12/13 00:31:18;;;;;;;29.87;9.90;;;9.10;99.90;;;;;;5048974;27;20215;-44
2021/12/13 00:33:58;;;;;;;24.07;9.77;;;9.10;99.90;;;;;;5061716;28;20223;-44
2021/12/13 00:36:33;;;;;;;26.40;10.93;;;9.10;99.90;;;;;;5041667;28;20219;-43
2021/12/13 00:39:08;;;;;;;26.57;10.87;;;9.10;99.90;;;;;;5070057;28;20274;-43
2021/12/13 00:41:36;;;;;;;25.03;10.87;;;9.10;99.90;;;;;;5073931;28;20203;-43
2021/12/13 00:44:07;;;;;;;33.57;11.83;;;9.10;99.90;;;;;;5053532;28;20841;-43
2021/12/13 00:46:38;;;;;;;27.90;10.70;;;9.10;99.90;;;;;;5059095;28;20223;-43
2021/12/13 00:49:09;;;;;;;28.77;11.83;;;9.20;99.90;;;;;;5074156;28;20196;-47
2021/12/13 00:51:43;;;;;;;27.13;10.60;;;9.10;99.90;;;;;;5016406;28;20212;-48
2021/12/13 00:54:17;;;;;;;22.63;10.33;;;9.10;99.90;;;;;;5072816;28;20224;-48
2021/12/13 00:56:57;;;;;;;26.63;10.30;;;9.20;99.90;;;;;;5053254;28;20235;-47
2021/12/13 00:59:28;;;;;;;25.03;10.43;;;9.20;99.90;;;;;;5063589;28;20896;-47
2021/12/13 01:02:00;;;;;;;26.33;9.80;;;9.10;99.90;;;;;;5059275;27;20211;-47
2021/12/13 01:04:48;;;;;;;21.20;9.50;;;9.10;99.90;;;;;;5065642;28;20225;-47
2021/12/13 01:07:57;;;;;;;23.07;9.87;;;9.20;99.90;;;;;;5032381;28;20219;-47
2021/12/13 01:11:09;;;;;;;21.70;9.20;;;9.10;99.90;;;;;;5034352;28;20203;-47
2021/12/13 01:13:42;;;;;;;19.00;9.03;;;9.10;99.90;;;;;;5057644;28;20336;-47
2021/12/13 01:16:20;;;;;;;22.33;9.70;;;9.10;99.90;;;;;;5057962;28;20234;-47
2021/12/13 01:19:13;;;;;;;20.83;9.53;;;9.10;99.90;;;;;;5071325;28;20219;-47
2021/12/13 01:21:55;;;;;;;25.43;10.50;;;9.10;99.90;;;;;;5029488;28;20218;-47
2021/12/13 01:24:52;;;;;;;21.30;9.37;;;9.20;99.90;;;;;;5054238;28;20230;-47
2021/12/13 01:27:29;;;;;;;19.63;9.00;;;9.10;99.90;;;;;;5071953;28;20602;-49
2021/12/13 01:29:56;;;;;;;22.40;9.70;;;9.20;99.90;;;;;;5058859;28;21380;-45
2021/12/13 01:32:24;;;;;;;23.30;9.87;;;9.20;99.90;;;;;;5053889;28;20479;-47
2021/12/13 01:34:53;;;;;;;23.60;10.25;;;9.30;99.90;;;;;;5048046;28;20325;-44
2021/12/13 01:37:20;;;;;;;20.83;9.73;;;9.30;99.90;;;;;;5036666;28;20310;-44
2021/12/13 01:39:51;;;;;;;20.97;9.20;;;9.20;99.90;;;;;;5069751;28;20218;-44
2021/12/13 01:42:21;;;;;;;23.27;9.60;;;9.20;99.90;;;;;;5058127;28;20211;-43
2021/12/13 01:44:52;;;;;;;22.80;10.10;;;9.20;99.90;;;;;;5066946;28;20207;-43
2021/12/13 01:47:29;;;;;;;23.77;9.95;;;9.20;99.90;;;;;;5066735;28;20327;-49
2021/12/13 01:50:06;;;;;;;22.97;9.70;;;9.20;99.90;;;;;;5064799;28;20203;-48
2021/12/13 01:52:35;;;;;;;20.20;9.73;;;9.20;99.90;;;;;;5051635;28;20210;-46
2021/12/13 01:55:10;;;;;;;26.37;9.77;;;9.20;99.90;;;;;;5076076;28;20863;-48
2021/12/13 01:57:47;;;;;;;25.95;10.25;;;9.20;99.90;;;;;;5062350;28;20223;-47
2021/12/13 02:00:18;;;;;;;25.73;10.37;;;9.20;99.90;;;;;;5077983;28;20203;-46
2021/12/13 02:02:47;;;;;;;29.90;11.33;;;9.30;99.90;;;;;;5062380;28;20211;-47
2021/12/13 02:05:18;;;;;;;23.60;10.60;;;9.30;99.90;;;;;;5061635;28;20243;-45
2021/12/13 02:07:48;;;;;;;22.17;10.40;;;9.30;99.90;;;;;;5045706;28;20737;-45
2021/12/13 02:10:21;;;;;;;23.07;10.70;;;9.30;99.90;;;;;;5067989;28;20290;-45
2021/12/13 02:12:56;;;;;;;26.42;10.75;;;9.30;99.90;;;;;;5070495;28;20226;-47
2021/12/13 02:18:13;;;;;;;23.83;10.70;;;9.30;99.90;;;;;;5079736;28;20339;-45
2021/12/13 02:20:45;;;;;;;24.60;10.57;;;9.30;99.90;;;;;;5076305;28;20208;-45
2021/12/13 02:23:13;;;;;;;24.52;10.38;;;9.30;99.90;;;;;;5062075;28;25159;-45
2021/12/13 02:25:43;;;;;;;26.08;10.40;;;9.30;99.90;;;;;;5056653;28;20208;-45
2021/12/13 02:28:14;;;;;;;21.47;9.50;;;9.30;99.90;;;;;;5078330;28;20666;-46
2021/12/13 02:30:45;;;;;;;23.33;10.02;;;9.30;99.90;;;;;;5053747;28;20713;-45
2021/12/13 02:33:15;;;;;;;21.83;9.88;;;9.30;99.90;;;;;;5068207;28;20202;-45
2021/12/13 02:35:44;;;;;;;24.40;9.90;;;9.30;99.90;;;;;;5066799;28;20218;-45
2021/12/13 02:38:17;;;;;;;22.33;9.23;;;9.30;99.90;;;;;;5048710;28;20227;-45
2021/12/13 02:40:44;;;;;;;25.37;9.70;;;9.40;99.90;;;;;;5057584;28;20214;-45
2021/12/13 02:43:14;;;;;;;27.00;10.75;;;9.40;99.90;;;;;;5065056;28;20192;-45
2021/12/13 02:45:46;;;;;;;25.45;10.60;;;9.40;99.90;;;;;;5059899;28;20227;-45
2021/12/13 02:48:17;;;;;;;30.20;10.80;;;9.40;99.90;;;;;;5069788;28;20192;-46
2021/12/13 02:50:49;;;;;;;24.37;9.87;;;9.40;99.90;;;;;;5061293;28;20219;-47
2021/12/13 02:53:20;;;;;;;32.47;10.30;;;9.40;99.90;;;;;;5055813;27;20241;-45
2021/12/13 02:55:47;;;;;;;30.47;11.70;;;9.40;99.90;;;;;;5066120;28;20216;-48
2021/12/13 02:58:20;;;;;;;24.27;10.17;;;9.40;99.90;;;;;;5058830;28;20227;-49
2021/12/13 03:00:52;;;;;;;28.85;10.13;;;9.40;99.90;;;;;;5049135;28;20598;-48
2021/12/13 03:03:23;;;;;;;28.33;11.20;;;9.40;99.90;;;;;;5073919;28;20235;-48
2021/12/13 03:05:53;;;;;;;24.90;10.10;;;9.40;99.90;;;;;;5061824;28;20568;-48
2021/12/13 03:08:26;;;;;;;24.77;9.60;;;9.40;99.90;;;;;;5065766;28;20208;-48
2021/12/13 03:10:57;;;;;;;23.45;10.10;;;9.40;99.90;;;;;;5032223;28;20603;-48
2021/12/13 03:13:24;;;;;;;28.90;11.30;;;9.30;99.90;;;;;;5080903;27;20717;-48
2021/12/13 03:15:57;;;;;;;23.35;10.38;;;9.30;99.90;;;;;;5054630;28;20216;-47
2021/12/13 03:18:33;;;;;;;26.00;10.10;;;9.30;99.90;;;;;;5067951;27;20541;-48
2021/12/13 03:21:19;;;;;;;21.63;8.90;;;9.30;99.90;;;;;;5062917;27;20256;-48
2021/12/13 03:24:00;;;;;;;18.53;8.17;;;9.40;99.90;;;;;;5066464;28;21288;-48
2021/12/13 03:26:45;;;;;;;20.15;9.30;;;9.30;99.90;;;;;;5036164;28;20218;-48
2021/12/13 03:29:19;;;;;;;19.48;8.98;;;9.30;99.90;;;;;;5052704;28;20200;-45
2021/12/13 03:31:50;;;;;;;18.10;9.25;;;9.30;99.90;;;;;;5049487;28;20320;-45
2021/12/13 03:34:22;;;;;;;17.50;9.23;;;9.40;99.90;;;;;;5055417;28;20227;-45
2021/12/13 03:37:00;;;;;;;16.40;9.60;;;9.30;99.90;;;;;;5053499;28;21083;-45
2021/12/13 03:39:33;;;;;;;18.87;9.57;;;9.30;99.90;;;;;;5060220;28;20234;-45
2021/12/13 03:42:06;;;;;;;21.10;10.23;;;9.30;99.90;;;;;;5052453;28;20265;-45
2021/12/13 03:44:37;;;;;;;22.17;9.77;;;9.30;99.90;;;;;;5070153;28;21069;-45
2021/12/13 03:47:10;;;;;;;20.52;10.45;;;9.30;99.90;;;;;;5065642;27;20195;-45
2021/12/13 03:49:42;;;;;;;18.70;9.50;;;9.30;99.90;;;;;;5044223;28;20204;-44
2021/12/13 03:52:11;;;;;;;18.70;9.43;;;9.40;99.90;;;;;;5058489;28;20207;-44
2021/12/13 03:54:42;;;;;;;25.45;9.80;;;9.40;99.90;;;;;;5061786;28;21309;-44
2021/12/13 03:57:10;;;;;;;19.70;10.00;;;9.40;99.90;;;;;;5060330;28;20223;-44
2021/12/13 03:59:41;;;;;;;24.48;10.10;;;9.40;99.90;;;;;;5054235;28;20204;-44
2021/12/13 04:02:13;;;;;;;18.83;9.40;;;9.40;99.90;;;;;;5066453;28;20207;-45
2021/12/13 04:04:44;;;;;;;21.80;9.55;;;9.40;99.90;;;;;;5063327;28;20225;-45
2021/12/13 04:07:14;;;;;;;21.33;9.75;;;9.40;99.90;;;;;;5068557;27;20206;-45
2021/12/13 04:09:44;;;;;;;18.67;9.50;;;9.40;99.90;;;;;;5067736;28;20388;-45
2021/12/13 04:12:15;;;;;;;24.20;9.80;;;9.40;99.90;;;;;;5056706;28;20908;-45
2021/12/13 04:14:45;;;;;;;22.05;11.25;;;9.40;99.90;;;;;;5043591;28;20310;-44
2021/12/13 04:17:23;;;;;;;24.03;10.80;;;9.40;99.90;;;;;;5075422;28;20220;-43
2021/12/13 04:19:58;;;;;;;24.58;11.00;;;9.50;99.90;;;;;;5047070;28;20225;-44
2021/12/13 04:22:28;;;;;;;22.98;10.55;;;9.40;99.90;;;;;;5070886;28;20204;-45
2021/12/13 04:25:00;;;;;;;23.38;10.98;;;9.50;99.90;;;;;;5050252;28;20227;-45
2021/12/13 04:27:37;;;;;;;28.20;11.07;;;9.40;99.90;;;;;;5058143;27;20867;-49
2021/12/13 04:30:14;;;;;;;28.48;11.40;;;9.50;99.90;;;;;;5060265;27;20388;-48
2021/12/13 04:32:48;;;;;;;29.63;11.35;;;9.50;99.90;;;;;;5056526;28;20693;-48
2021/12/13 04:35:16;;;;;;;24.35;11.07;;;9.50;99.90;;;;;;5063912;28;20230;-48
2021/12/13 04:37:47;;;;;;;30.10;11.47;;;9.50;99.90;;;;;;5076286;28;20226;-49
2021/12/13 04:40:19;;;;;;;28.73;11.75;;;9.50;99.90;;;;;;5052758;28;20482;-44
2021/12/13 04:42:50;;;;;;;29.40;12.00;;;9.50;99.90;;;;;;5045972;28;20214;-44
2021/12/13 04:45:19;;;;;;;32.67;12.02;;;9.50;99.90;;;;;;5054502;28;20231;-44
2021/12/13 04:47:54;;;;;;;29.27;12.23;;;9.50;99.90;;;;;;5069681;28;20201;-44
2021/12/13 04:50:25;;;;;;;32.63;12.40;;;9.50;99.90;;;;;;5062783;28;20208;-44
2021/12/13 04:52:53;;;;;;;32.80;13.00;;;9.50;99.90;;;;;;5075571;28;20195;-45
2021/12/13 04:55:26;;;;;;;25.10;11.15;;;9.50;99.90;;;;;;5064293;28;20230;-45
2021/12/13 04:57:56;;;;;;;36.30;12.32;;;9.50;99.90;;;;;;5050270;28;20219;-47
2021/12/13 05:00:25;;;;;;;28.23;12.70;;;9.50;99.90;;;;;;5052112;28;20266;-47
2021/12/13 05:02:56;;;;;;;34.23;12.87;;;9.50;99.90;;;;;;5059763;28;20203;-46
2021/12/13 05:05:23;;;;;;;28.30;12.55;;;9.50;99.90;;;;;;5029950;28;20212;-48
2021/12/13 05:07:52;;;;;;;30.07;11.80;;;9.60;99.90;;;;;;5053482;28;20894;-47
2021/12/13 05:10:24;;;;;;;33.85;12.70;;;9.60;99.90;;;;;;5043369;27;20215;-47
2021/12/13 05:13:09;;;;;;;40.97;13.77;;;9.60;99.90;;;;;;5039930;28;20966;-47
2021/12/13 05:15:39;;;;;;;33.42;12.55;;;9.60;99.90;;;;;;5065762;28;20317;-44
2021/12/13 05:18:09;;;;;;;38.35;13.10;;;9.60;99.90;;;;;;5058060;28;20238;-44
2021/12/13 05:20:39;;;;;;;34.27;11.73;;;9.60;99.90;;;;;;5056753;28;20211;-45
2021/12/13 05:23:10;;;;;;;33.83;11.68;;;9.60;99.90;;;;;;5068132;28;22016;-45
2021/12/13 05:25:41;;;;;;;28.13;12.90;;;9.60;99.90;;;;;;5063519;28;20211;-45
2021/12/13 05:28:13;;;;;;;29.02;12.20;;;9.60;99.90;;;;;;5025680;28;20772;-45
2021/12/13 05:30:49;;;;;;;30.58;11.20;;;9.60;99.90;;;;;;5072442;28;20214;-45
2021/12/13 05:33:20;;;;;;;23.55;10.95;;;9.60;99.90;;;;;;5012034;28;21235;-45
2021/12/13 05:35:50;;;;;;;29.00;11.60;;;9.60;99.90;;;;;;5057887;28;20430;-45
2021/12/13 05:38:27;;;;;;;30.42;11.15;;;9.60;99.90;;;;;;5040307;28;20260;-45
2021/12/13 05:40:57;;;;;;;27.15;11.05;;;9.60;99.90;;;;;;5062530;28;20211;-48
2021/12/13 05:43:28;;;;;;;26.83;10.77;;;9.70;99.90;;;;;;5029691;28;20231;-45
2021/12/13 05:46:00;;;;;;;37.30;11.70;;;9.60;99.90;;;;;;5044285;28;20640;-45
2021/12/13 05:48:40;;;;;;;26.08;11.38;;;9.60;99.90;;;;;;5052032;28;20196;-45
2021/12/13 05:51:18;;;;;;;30.58;12.35;;;9.60;99.90;;;;;;5038732;28;20203;-45
2021/12/13 05:53:54;;;;;;;24.07;11.63;;;9.60;99.90;;;;;;5056451;28;20242;-45
2021/12/13 05:56:22;;;;;;;32.73;12.23;;;9.60;99.90;;;;;;5047562;28;20540;-45
2021/12/13 05:58:52;;;;;;;25.85;11.95;;;9.60;99.90;;;;;;5053137;28;20219;-45
2021/12/13 06:01:25;;;;;;;29.48;10.82;;;9.60;99.90;;;;;;5055019;28;21256;-45
2021/12/13 06:03:55;;;;;;;29.63;11.63;;;9.60;99.90;;;;;;5065255;28;20788;-45
2021/12/13 06:06:29;;;;;;;28.70;11.43;;;9.60;99.90;;;;;;5051200;28;24283;-45
2021/12/13 06:08:58;;;;;;;26.05;12.32;;;9.60;99.90;;;;;;5052097;28;20230;-47
2021/12/13 06:11:33;;;;;;;27.48;11.15;;;9.60;99.90;;;;;;5061097;28;20211;-44
2021/12/13 06:14:07;;;;;;;26.75;11.38;;;9.60;99.90;;;;;;5054162;28;20234;-45
2021/12/13 06:16:50;;;;;;;23.67;11.30;;;9.60;99.90;;;;;;5040818;28;20207;-45
2021/12/13 06:19:26;;;;;;;22.57;11.53;;;9.60;99.90;;;;;;5046078;28;21012;-45
2021/12/13 06:22:04;;;;;;;22.35;10.70;;;9.60;99.90;;;;;;5037671;28;20239;-43
2021/12/13 06:24:34;;;;;;;26.35;12.45;;;9.60;99.90;;;;;;5045629;28;20230;-44
2021/12/13 06:27:07;;;;;;;27.08;12.98;;;9.60;99.90;;;;;;5052228;28;20407;-49
2021/12/13 06:30:05;;;;;;;26.25;12.75;;;9.60;99.90;;;;;;5075001;28;20206;-47
2021/12/13 06:32:36;;;;;;;27.20;12.43;;;9.60;99.90;;;;;;5058730;28;20216;-48
2021/12/13 06:35:34;;;;;;;24.47;11.73;;;9.60;99.90;;;;;;5068382;28;20773;-48
2021/12/13 06:38:17;;;;;;;30.10;12.38;;;9.60;99.90;;;;;;5066843;28;20211;-48
2021/12/13 06:40:48;;;;;;;25.23;12.00;;;9.50;99.90;;;;;;5051981;28;20211;-48
2021/12/13 06:43:27;;;;;;;30.55;12.20;;;9.50;99.90;;;;;;5070268;28;20228;-48
2021/12/13 06:45:54;;;;;;;21.63;11.77;;;9.50;99.90;;;;;;5030704;28;20994;-48
2021/12/13 06:48:34;;;;;;;24.70;11.93;;;9.50;99.90;;;;;;5080570;28;20196;-48
2021/12/13 06:51:01;;;;;;;21.13;11.23;;;9.50;99.90;;;;;;5060886;28;20705;-50
2021/12/13 06:53:28;;;;;;;22.77;12.05;;;9.50;99.90;;;;;;5060664;27;20826;-47
2021/12/13 06:55:55;;;;;;;26.40;12.02;;;9.50;99.90;;;;;;5063107;28;20330;-47
2021/12/13 06:58:26;;;;;;;24.60;11.88;;;9.50;99.90;;;;;;5065308;28;20217;-47
2021/12/13 07:00:58;;;;;;;29.27;12.23;;;9.50;99.90;;;;;;5062672;28;20204;-48
2021/12/13 07:03:32;;;;;;;25.73;12.23;;;9.50;99.90;;;;;;5049690;28;20227;-47
2021/12/13 07:06:01;;;;;;;24.65;12.35;;;9.50;99.90;;;;;;5062903;28;20212;-48
2021/12/13 07:08:31;;;;;;;21.63;11.15;;;9.50;99.90;;;;;;5071553;28;20229;-47
2021/12/13 07:11:05;;;;;;;20.60;11.38;;;9.50;99.90;;;;;;5049886;28;20218;-47
2021/12/13 07:13:36;;;;;;;23.33;11.13;;;9.40;99.90;;;;;;5072278;28;20956;-47
2021/12/13 07:16:06;;;;;;;20.03;11.00;;;9.40;99.90;;;;;;5078821;28;20210;-47
2021/12/13 07:18:42;;;;;;;18.48;11.05;;;9.40;99.90;;;;;;5054874;28;20287;-47
2021/12/13 07:21:12;;;;;;;22.83;11.35;;;9.40;99.90;;;;;;5071718;28;20218;-47
2021/12/13 07:24:00;;;;;;;22.88;10.82;;;9.40;99.90;;;;;;5058932;28;20804;-47
2021/12/13 07:26:33;;;;;;;18.58;10.35;;;9.40;99.90;;;;;;5075447;28;20250;-47
2021/12/13 07:29:06;;;;;;;20.17;10.07;;;9.40;99.90;;;;;;5084289;28;20195;-47
2021/12/13 07:31:33;;;;;;;18.40;10.55;;;9.40;99.90;;;;;;5057589;28;20204;-47
2021/12/13 07:34:20;;;;;;;20.45;10.07;;;9.40;99.90;;;;;;5062469;28;20228;-47
2021/12/13 07:36:54;;;;;;;21.00;10.10;;;9.30;99.90;;;;;;5066550;28;20342;-47
2021/12/13 07:39:24;;;;;;;16.02;9.27;;;9.30;99.90;;;;;;5062428;28;20216;-46
2021/12/13 07:41:55;;;;;;;19.55;9.77;;;9.30;99.90;;;;;;5077115;28;20803;-47
2021/12/13 07:44:40;;;;;;;20.42;9.75;;;9.30;99.90;;;;;;5061162;28;20230;-47
2021/12/13 07:47:10;;;;;;;14.85;9.77;;;9.30;99.90;;;;;;5061302;28;20200;-46
2021/12/13 07:49:40;;;;;;;20.33;9.57;;;9.30;99.90;;;;;;5041521;28;21027;-46
2021/12/13 07:52:08;;;;;;;17.48;8.88;;;9.30;99.90;;;;;;5078125;28;20698;-47
2021/12/13 07:54:41;;;;;;;16.60;8.60;;;9.30;99.90;;;;;;5062304;28;20608;-47
2021/12/13 07:57:18;;;;;;;16.63;9.03;;;9.20;99.90;;;;;;5084897;28;20208;-47
2021/12/13 07:59:47;;;;;;;15.50;9.07;;;9.20;99.90;;;;;;5070834;28;20473;-46
2021/12/13 08:02:22;;;;;;;20.70;9.75;;;9.20;99.90;;;;;;5077793;28;20206;-47
2021/12/13 08:04:52;;;;;;;19.60;7.67;;;9.20;99.90;;;;;;5077478;28;20731;-43
2021/12/13 08:07:22;;;;;;;15.27;8.07;;;9.20;99.90;;;;;;5058153;28;20696;-43
2021/12/13 08:09:53;;;;;;;13.13;8.03;;;9.20;99.90;;;;;;5062725;28;20905;-43
2021/12/13 08:12:23;;;;;;;16.80;8.60;;;9.20;99.90;;;;;;5079103;28;20200;-43
2021/12/13 08:14:55;;;;;;;12.93;8.65;;;9.20;99.90;;;;;;5074986;28;20748;-43
2021/12/13 08:17:26;;;;;;;18.87;9.63;;;9.20;99.90;;;;;;5067319;28;20214;-43
2021/12/13 08:19:56;;;;;;;18.48;10.65;;;9.20;99.90;;;;;;5060411;28;20242;-44
2021/12/13 08:22:28;;;;;;;15.65;10.43;;;9.20;99.90;;;;;;5057424;28;20588;-43
2021/12/13 08:24:57;;;;;;;20.63;10.80;;;9.20;99.90;;;;;;5052835;28;21763;-43
2021/12/13 08:27:29;;;;;;;18.23;10.80;;;9.20;99.90;;;;;;5056550;28;20197;-43
2021/12/13 08:30:15;;;;;;;20.13;12.07;;;9.20;99.90;;;;;;5083466;28;20209;-43
2021/12/13 08:32:56;;;;;;;21.13;10.70;;;9.20;99.90;;;;;;5061078;28;20238;-43
2021/12/13 08:35:23;;;;;;;16.77;10.57;;;9.20;99.90;;;;;;5086186;28;20729;-44
2021/12/13 08:37:56;;;;;;;18.60;10.47;;;9.20;99.90;;;;;;5063670;27;20812;-43
2021/12/13 08:40:29;;;;;;;20.80;12.27;;;9.20;99.90;;;;;;5064085;28;20210;-43
2021/12/13 08:42:58;;;;;;;18.85;12.35;;;9.20;99.90;;;;;;5059002;28;20214;-43
2021/12/13 08:45:32;;;;;;;21.70;12.30;;;9.20;99.90;;;;;;5074103;28;20215;-43
2021/12/13 08:48:01;;;;;;;20.37;12.57;;;9.20;99.90;;;;;;5057266;28;20235;-43
2021/12/13 08:50:31;;;;;;;18.50;11.57;;;9.20;99.90;;;;;;5074902;28;20647;-43
2021/12/13 08:53:03;;;;;;;21.60;12.87;;;9.20;99.90;;;;;;5061661;28;20311;-43
2021/12/13 08:55:33;;;;;;;22.33;11.85;;;9.20;99.90;;;;;;5083168;28;20208;-43
2021/12/13 08:58:12;;;;;;;20.40;12.57;;;9.20;99.90;;;;;;5053892;28;20208;-44
2021/12/13 09:01:03;;;;;;;19.98;12.02;;;9.20;99.90;;;;;;5075811;28;20203;-43
2021/12/13 09:03:37;;;;;;;19.58;12.30;;;9.20;99.90;;;;;;5048732;28;21094;-43
2021/12/13 09:06:26;;;;;;;19.27;11.38;;;9.20;99.90;;;;;;5076256;28;20345;-43
2021/12/13 09:08:57;;;;;;;23.70;11.77;;;9.20;99.90;;;;;;5056183;28;20353;-43
2021/12/13 09:11:31;;;;;;;19.02;11.45;;;9.20;99.90;;;;;;5067807;28;20318;-44
2021/12/13 09:14:03;;;;;;;24.38;12.30;;;9.20;99.90;;;;;;5056315;28;20228;-44
2021/12/13 09:16:45;;;;;;;19.73;13.90;;;9.20;99.90;;;;;;5078128;28;20210;-43
2021/12/13 09:19:19;;;;;;;20.45;13.35;;;9.20;99.90;;;;;;5064820;28;20220;-44
2021/12/13 09:21:54;;;;;;;23.73;13.52;;;9.10;99.90;;;;;;5078623;28;20204;-44
2021/12/13 09:24:28;;;;;;;18.25;12.18;;;9.20;99.90;;;;;;5061519;28;20747;-43
2021/12/13 09:27:05;;;;;;;20.83;12.20;;;9.20;99.90;;;;;;5051763;28;20440;-44
2021/12/13 09:29:31;;;;;;;19.25;10.98;;;9.20;99.90;;;;;;5067089;28;20544;-44
2021/12/13 09:32:00;;;;;;;20.52;11.75;;;9.20;99.90;;;;;;5054715;28;20720;-44
2021/12/13 09:34:27;;;;;;;17.52;11.73;;;9.20;99.90;;;;;;5071553;28;20228;-43
2021/12/13 09:36:56;;;;;;;17.38;11.45;;;9.20;99.90;;;;;;5074984;28;22320;-44
2021/12/13 09:39:25;;;;;;;19.85;12.43;;;9.20;99.90;;;;;;5064195;28;20228;-44
2021/12/13 09:41:57;;;;;;;20.63;11.70;;;9.20;99.90;;;;;;5058590;28;20519;-44
2021/12/13 09:44:31;;;;;;;18.73;11.52;;;9.20;99.90;;;;;;5072952;28;20272;-44
2021/12/13 09:47:05;;;;;;;17.60;10.43;;;9.20;99.90;;;;;;5073838;28;20655;-44
2021/12/13 09:49:36;;;;;;;19.33;11.40;;;9.20;99.90;;;;;;5063059;28;20200;-44
2021/12/13 09:52:07;;;;;;;19.27;11.40;;;9.20;99.90;;;;;;5080554;28;20326;-44
2021/12/13 09:54:41;;;;;;;23.02;12.02;;;9.20;99.90;;;;;;5079538;28;20223;-44
2021/12/13 09:57:11;;;;;;;19.85;11.50;;;9.20;99.90;;;;;;5061245;28;20781;-44
2021/12/13 09:59:42;;;;;;;22.92;12.13;;;9.20;99.90;;;;;;5070262;28;20562;-44
2021/12/13 10:02:14;;;;;;;18.60;11.60;;;9.20;99.90;;;;;;5070906;28;20423;-43
2021/12/13 10:04:44;;;;;;;21.67;11.45;;;9.20;99.90;;;;;;5058206;28;20603;-44
2021/12/13 10:07:15;;;;;;;20.40;10.93;;;9.20;99.90;;;;;;5076188;28;20538;-43
2021/12/13 10:09:45;;;;;;;17.33;11.33;;;9.20;99.90;;;;;;5046427;28;20212;-44
2021/12/13 10:12:17;;;;;;;22.10;11.77;;;9.20;99.90;;;;;;5044012;28;20215;-44
2021/12/13 10:14:47;;;;;;;21.87;11.47;;;9.20;99.90;;;;;;5068937;28;20215;-45
2021/12/13 10:17:20;;;;;;;18.43;11.83;;;9.20;99.90;;;;;;5059935;28;20212;-44
2021/12/13 10:19:51;;;;;;;19.97;11.87;;;9.20;99.90;;;;;;5077352;28;20242;-44
2021/12/13 10:22:22;;;;;;;20.20;11.87;;;9.20;99.90;;;;;;5072926;28;20208;-43
2021/12/13 10:24:53;;;;;;;22.17;12.30;;;9.20;99.90;;;;;;5063350;28;20230;-44
2021/12/13 10:27:20;;;;;;;18.33;12.27;;;9.20;99.90;;;;;;5083899;27;20561;-43
2021/12/13 10:29:53;;;;;;;25.60;13.10;;;9.20;99.90;;;;;;5039065;28;20582;-44
2021/12/13 10:32:24;;;;;;;22.65;13.07;;;9.20;99.90;;;;;;5068695;28;20656;-43
2021/12/13 10:34:55;;;;;;;23.63;13.27;;;9.20;99.90;;;;;;5048740;27;20227;-44
2021/12/13 10:37:26;;;;;;;26.20;13.07;;;9.20;99.90;;;;;;5081587;27;20215;-44
2021/12/13 10:39:56;;;;;;;20.30;13.07;;;9.20;99.90;;;;;;5079435;28;20220;-44
2021/12/13 10:42:26;;;;;;;18.55;12.88;;;9.20;99.90;;;;;;5069293;27;20206;-43
2021/12/13 10:44:53;;;;;;;27.60;13.30;;;9.20;99.90;;;;;;5058806;28;20436;-44
2021/12/13 10:47:27;;;;;;;20.70;14.32;;;9.20;99.90;;;;;;5060362;28;20215;-44
2021/12/13 10:49:55;;;;;;;25.08;14.32;;;9.20;99.90;;;;;;5070867;28;20929;-44
2021/12/13 10:52:27;;;;;;;25.77;14.38;;;9.20;99.90;;;;;;5052919;28;20200;-43
2021/12/13 10:54:57;;;;;;;25.95;14.82;;;9.20;99.90;;;;;;5050037;28;20512;-44
2021/12/13 10:57:35;;;;;;;24.70;14.93;;;9.20;99.90;;;;;;5081258;27;20210;-43
2021/12/13 11:00:13;;;;;;;22.13;14.00;;;9.20;99.90;;;;;;5040919;28;20223;-44
2021/12/13 11:02:42;;;;;;;27.30;15.15;;;9.20;99.90;;;;;;5059865;28;20253;-43
2021/12/13 11:05:13;;;;;;;28.15;15.73;;;9.20;99.90;;;;;;5058211;28;20234;-44
2021/12/13 11:07:41;;;;;;;24.02;15.20;;;9.20;99.90;;;;;;5071434;28;20222;-43
2021/12/13 11:10:10;;;;;;;28.05;16.20;;;9.20;99.90;;;;;;5064191;28;20219;-48
2021/12/13 11:12:40;;;;;;;27.70;15.20;;;9.20;99.90;;;;;;5073832;28;20584;-49
2021/12/13 11:15:13;;;;;;;27.27;15.13;;;9.20;99.90;;;;;;5054148;28;20224;-48
2021/12/13 11:17:41;;;;;;;24.95;14.80;;;9.20;99.90;;;;;;5071185;28;20215;-48
2021/12/13 11:20:15;;;;;;;28.05;15.75;;;9.20;99.90;;;;;;5058584;28;20314;-47
2021/12/13 11:22:44;;;;;;;29.97;16.00;;;9.20;99.90;;;;;;5069163;28;20207;-48
2021/12/13 11:25:16;;;;;;;26.27;16.17;;;9.20;99.90;;;;;;5064877;28;20234;-48
2021/12/13 11:27:45;;;;;;;27.70;16.07;;;9.20;99.90;;;;;;5075958;28;20199;-48
2021/12/13 11:30:16;;;;;;;30.17;17.02;;;9.20;99.90;;;;;;5051136;28;20200;-48
2021/12/13 11:33:22;;;;;;;24.02;14.98;;;9.30;99.90;;;;;;5072927;28;20226;-48
2021/12/13 11:36:22;;;;;;;25.48;15.48;;;9.20;99.90;;;;;;5061737;28;20280;-48
2021/12/13 11:39:16;;;;;;;28.40;16.65;;;9.30;99.90;;;;;;5063388;28;20195;-43
2021/12/13 11:42:18;;;;;;;25.83;15.93;;;9.20;99.90;;;;;;5078766;28;20192;-43
2021/12/13 11:45:08;;;;;;;26.15;14.48;;;9.30;99.90;;;;;;5054204;28;20234;-44
2021/12/13 11:48:03;;;;;;;24.92;14.40;;;9.30;99.90;;;;;;5056898;28;20215;-43
2021/12/13 11:51:16;;;;;;;24.45;15.35;;;9.30;99.90;;;;;;5031336;27;20212;-44
2021/12/13 11:54:26;;;;;;;24.70;15.40;;;9.30;99.90;;;;;;5050841;28;20424;-43
2021/12/13 11:57:26;;;;;;;21.80;13.73;;;9.30;99.90;;;;;;5075604;27;20203;-43
2021/12/13 12:00:08;;;;;;;24.83;15.15;;;9.30;99.90;;;;;;5040877;28;20231;-43
2021/12/13 12:02:59;;;;;;;25.33;15.77;;;9.30;99.90;;;;;;5046247;28;20319;-43
2021/12/13 12:06:14;;;;;;;25.27;15.43;;;9.20;99.90;;;;;;5044697;28;20301;-44
2021/12/13 12:09:12;;;;;;;24.83;14.77;;;9.30;99.90;;;;;;5051720;28;20200;-44
2021/12/13 12:12:17;;;;;;;26.80;15.60;;;9.30;99.90;;;;;;5042328;28;20257;-43
2021/12/13 12:14:47;;;;;;;33.83;15.38;;;9.30;99.90;;;;;;5054297;28;20230;-44
2021/12/13 12:17:15;;;;;;;26.37;15.83;;;9.30;99.90;;;;;;5050923;28;20369;-43
2021/12/13 12:19:42;;;;;;;27.27;16.67;;;9.30;99.90;;;;;;5055105;28;20755;-43
2021/12/13 12:22:13;;;;;;;27.80;15.98;;;9.30;99.90;;;;;;5061636;28;20199;-43
2021/12/13 12:24:44;;;;;;;24.10;14.37;;;9.20;99.90;;;;;;5045432;28;20227;-44
2021/12/13 12:27:16;;;;;;;25.80;15.50;;;9.30;99.90;;;;;;5059171;28;20200;-43
2021/12/13 12:29:45;;;;;;;30.60;17.08;;;9.30;99.90;;;;;;5064870;28;20561;-44
2021/12/13 12:32:16;;;;;;;29.83;16.65;;;9.30;99.90;;;;;;5072506;28;20293;-43
2021/12/13 12:34:52;;;;;;;25.10;15.30;;;9.30;99.90;;;;;;5043414;28;20620;-43
2021/12/13 12:38:07;;;;;;;26.10;15.07;;;9.30;99.90;;;;;;5068845;28;20195;-47
2021/12/13 12:40:38;;;;;;;25.60;15.93;;;9.30;99.90;;;;;;5063531;28;20313;-48
2021/12/13 12:43:07;;;;;;;24.88;14.60;;;9.30;99.90;;;;;;5061905;28;20597;-48
2021/12/13 12:45:38;;;;;;;27.43;15.97;;;9.30;99.90;;;;;;5062243;28;20207;-48
2021/12/13 12:48:19;;;;;;;23.75;14.10;;;9.30;99.90;;;;;;5055597;28;20741;-48
2021/12/13 12:50:55;;;;;;;24.55;15.13;;;9.30;99.90;;;;;;5052238;28;20269;-48
2021/12/13 12:53:33;;;;;;;24.42;13.95;;;9.30;99.90;;;;;;5079923;27;20419;-48
2021/12/13 12:56:06;;;;;;;24.17;13.73;;;9.30;99.90;;;;;;5061577;28;20296;-48
2021/12/13 12:58:37;;;;;;;24.95;14.65;;;9.30;99.90;;;;;;5049267;28;20414;-49
2021/12/13 13:01:07;;;;;;;23.67;15.27;;;9.30;99.90;;;;;;5061156;28;20216;-48
2021/12/13 13:03:37;;;;;;;25.17;14.05;;;9.30;99.90;;;;;;5013534;28;20227;-47
2021/12/13 13:06:07;;;;;;;20.88;13.20;;;9.30;99.90;;;;;;5051727;28;20225;-47
2021/12/13 13:08:37;;;;;;;21.40;14.57;;;9.30;99.90;;;;;;5047874;28;20204;-48
2021/12/13 13:13:53;;;;;;;24.65;14.63;;;9.30;99.90;;;;;;5051717;28;21312;-44
2021/12/13 13:16:29;;;;;;;21.37;13.97;;;9.30;99.90;;;;;;5063773;28;20212;-44
2021/12/13 13:18:57;;;;;;;20.47;13.97;;;9.30;99.90;;;;;;5049284;28;21119;-44